Time,TemperatureF,DewpointF,PressureIn,WindDirection,WindDirectionDegrees,WindSpeedMPH,WindSpeedGustMPH,Humidity,HourlyPrecipIn,Conditions,Clouds,dailyrainin,SoftwareType,DateUTC
2013-01-09 00:00:00,39.8,34.1,30.23,SSE,157,0.0,2.0,80,0.00,,OVC080,0.00,VWS V14.00,2013-01-09 06:00:00,
2013-01-09 00:03:00,39.9,33.9,30.24,SSE,157,0.0,2.0,79,0.00,,SCT120,0.00,VWS V14.00,2013-01-09 06:03:00,
2013-01-09 00:08:00,39.9,34.2,30.24,SSE,157,0.0,2.0,80,0.00,,SCT120,0.00,VWS V14.00,2013-01-09 06:08:00,
2013-01-09 00:13:00,39.8,34.1,30.24,SSE,157,2.0,2.0,80,0.00,,SCT120,0.00,VWS V14.00,2013-01-09 06:13:00,
2013-01-09 00:18:00,39.7,34.4,30.25,SSE,157,0.0,4.0,81,0.00,,SCT120,0.00,VWS V14.00,2013-01-09 06:18:00,
2013-01-09 00:23:00,39.5,34.5,30.25,SSE,157,2.0,2.0,82,0.00,,BKN090,0.00,VWS V14.00,2013-01-09 06:23:00,
2013-01-09 00:28:00,39.3,34.3,30.25,SSE,157,1.0,2.0,82,0.00,,BKN090,0.00,VWS V14.00,2013-01-09 06:28:00,
2013-01-09 00:30:00,39.6,34.6,30.25,SSE,157,2.0,4.0,82,0.00,,OVC080,0.00,VWS V14.00,2013-01-09 06:30:00,
2013-01-09 00:33:00,39.4,34.4,30.25,SSE,157,0.0,2.0,82,0.00,,BKN090,0.00,VWS V14.00,2013-01-09 06:33:00,
2013-01-09 00:38:00,39.5,34.2,30.26,SSE,157,1.0,2.0,81,0.00,,BKN090,0.00,VWS V14.00,2013-01-09 06:38:00,
2013-01-09 00:43:00,39.7,34.4,30.25,SSE,157,2.0,2.0,81,0.00,,OVC080,0.00,VWS V14.00,2013-01-09 06:43:00,
2013-01-09 00:48:00,39.9,34.5,30.26,SSE,157,1.0,2.0,81,0.00,,OVC080,0.00,VWS V14.00,2013-01-09 06:48:00,
2013-01-09 00:52:00,40.1,34.8,30.25,SSE,157,0.0,2.0,81,0.00,,OVC080,0.00,VWS V14.00,2013-01-09 06:52:00,
2013-01-09 00:57:00,40.1,35.1,30.26,SSE,157,0.0,2.0,82,0.00,,OVC080,0.00,VWS V14.00,2013-01-09 06:57:00,
2013-01-09 01:00:00,40.0,34.7,30.26,SSE,157,1.0,2.0,81,0.00,,OVC080,0.00,VWS V14.00,2013-01-09 07:00:00,
2013-01-09 01:02:00,40.1,35.1,30.27,SSE,157,0.0,2.0,82,0.00,,,0.00,VWS V14.00,2013-01-09 07:02:00,
2013-01-09 01:07:00,40.2,35.5,30.27,SSE,157,0.0,4.0,83,0.00,,,0.00,VWS V14.00,2013-01-09 07:07:00,
2013-01-09 01:12:00,40.2,35.5,30.27,SSE,157,0.0,4.0,83,0.00,,,0.00,VWS V14.00,2013-01-09 07:12:00,
2013-01-09 01:17:00,40.3,35.9,30.28,SSE,157,1.0,4.0,84,0.00,,,0.00,VWS V14.00,2013-01-09 07:17:00,
2013-01-09 01:22:00,40.4,36.5,30.28,SSE,157,1.0,4.0,86,0.00,,,0.00,VWS V14.00,2013-01-09 07:22:00,
2013-01-09 01:27:00,40.2,36.7,30.27,SSE,159,4.0,5.0,87,0.00,,,0.00,VWS V14.00,2013-01-09 07:27:00,
2013-01-09 01:30:00,40.4,36.3,30.28,SSE,157,2.0,4.0,85,0.00,,OVC080,0.00,VWS V14.00,2013-01-09 07:30:00,
2013-01-09 01:32:00,39.8,36.5,30.27,SSE,159,2.0,5.0,88,0.00,,,0.00,VWS V14.00,2013-01-09 07:32:00,
2013-01-09 01:37:00,39.8,37.1,30.28,SSE,159,2.0,5.0,90,0.00,,,0.00,VWS V14.00,2013-01-09 07:37:00,
2013-01-09 01:42:00,39.9,37.5,30.28,SSE,159,1.0,5.0,91,0.00,,RA,0.00,VWS V14.00,2013-01-09 07:42:00,
2013-01-09 01:47:00,39.8,37.4,30.28,SSE,159,0.0,5.0,91,0.00,,RA,0.00,VWS V14.00,2013-01-09 07:47:00,
2013-01-09 01:52:00,39.9,37.8,30.28,SSE,159,0.0,1.0,92,0.00,,RA,0.00,VWS V14.00,2013-01-09 07:52:00,
2013-01-09 01:57:00,40.0,37.9,30.29,SSE,159,0.0,1.0,92,0.00,,RA,0.00,VWS V14.00,2013-01-09 07:57:00,
2013-01-09 02:00:00,39.9,37.5,30.28,SSE,159,0.0,5.0,91,0.00,,OVC080,0.00,VWS V14.00,2013-01-09 08:00:00,
2013-01-09 02:02:00,40.0,38.1,30.29,SSE,159,0.0,1.0,93,0.00,,-RA,0.00,VWS V14.00,2013-01-09 08:02:00,
2013-01-09 02:07:00,40.0,38.1,30.29,SSE,159,0.0,1.0,93,0.00,,-RA,0.00,VWS V14.00,2013-01-09 08:07:00,
2013-01-09 02:12:00,39.9,38.0,30.30,SSE,159,0.0,1.0,93,0.00,,-RA,0.00,VWS V14.00,2013-01-09 08:12:00,
2013-01-09 02:17:00,39.9,38.0,30.30,SSE,159,1.0,2.0,93,0.00,,-RA,0.00,VWS V14.00,2013-01-09 08:17:00,
2013-01-09 02:22:00,40.1,38.2,30.30,SSE,159,0.0,1.0,93,0.00,,RA,0.00,VWS V14.00,2013-01-09 08:22:00,
2013-01-09 02:27:00,40.1,38.2,30.30,SSE,159,0.0,1.0,93,0.00,,RA,0.00,VWS V14.00,2013-01-09 08:27:00,
2013-01-09 02:30:00,40.0,38.1,30.30,SSE,159,0.0,2.0,93,0.00,,OVC080,0.00,VWS V14.00,2013-01-09 08:30:00,
2013-01-09 02:32:00,39.9,38.0,30.30,SSE,159,0.0,1.0,93,0.00,,RA,0.00,VWS V14.00,2013-01-09 08:32:00,
2013-01-09 02:37:00,39.6,37.8,30.30,SSE,159,0.0,2.0,93,0.00,,RA,0.00,VWS V14.00,2013-01-09 08:37:00,
2013-01-09 02:42:00,39.1,37.2,30.30,SSE,159,1.0,2.0,93,0.00,,RA,0.00,VWS V14.00,2013-01-09 08:42:00,
2013-01-09 02:47:00,38.8,37.0,30.30,SSE,159,1.0,2.0,93,0.00,,RA,0.00,VWS V14.00,2013-01-09 08:47:00,
2013-01-09 02:52:00,38.7,37.1,30.30,SSE,159,0.0,4.0,94,0.00,,RA,0.00,VWS V14.00,2013-01-09 08:52:00,
2013-01-09 02:57:00,38.7,37.1,30.30,SSE,159,2.0,4.0,94,0.00,,RA,0.00,VWS V14.00,2013-01-09 08:57:00,
2013-01-09 03:00:00,38.7,36.8,30.30,SSE,159,1.0,2.0,93,0.00,,OVC080,0.00,VWS V14.00,2013-01-09 09:00:00,
2013-01-09 03:02:00,38.9,37.3,30.31,SSE,159,0.0,4.0,94,0.00,,RA,0.00,VWS V14.00,2013-01-09 09:02:00,
2013-01-09 03:07:00,39.1,37.8,30.31,SSE,159,2.0,4.0,95,0.00,,RA,0.00,VWS V14.00,2013-01-09 09:07:00,
2013-01-09 03:12:00,39.4,38.1,30.31,SSE,159,0.0,4.0,95,0.00,,RA,0.00,VWS V14.00,2013-01-09 09:12:00,
2013-01-09 03:30:00,39.0,37.7,30.31,SSE,158,1.0,6.0,95,0.00,,OVC080,0.00,VWS V14.00,2013-01-09 09:30:00,
2013-01-09 04:00:00,40.8,39.5,30.31,South,180,3.0,8.0,95,0.00,,RA,0.00,VWS V14.00,2013-01-09 10:00:00,
2013-01-09 04:30:00,42.4,41.1,30.32,WSW,248,3.0,8.0,95,0.00,,RA,0.00,VWS V14.00,2013-01-09 10:30:00,
2013-01-09 05:00:00,43.0,41.4,30.32,WSW,248,3.0,9.0,94,0.00,,RA,0.00,VWS V14.00,2013-01-09 11:00:00,
2013-01-09 05:30:00,43.1,41.8,30.32,SW,225,2.0,6.0,95,0.00,,RA,0.00,VWS V14.00,2013-01-09 11:30:00,
2013-01-09 06:00:00,43.2,41.9,30.32,SW,225,1.0,4.0,95,0.00,,RA,0.00,VWS V14.00,2013-01-09 12:00:00,
2013-01-09 06:30:00,43.2,41.9,30.34,SW,225,0.0,3.0,95,0.00,,RA,0.00,VWS V14.00,2013-01-09 12:30:00,
2013-01-09 06:53:00,43.2,41.9,30.34,SW,225,0.0,3.0,95,0.00,,RA,0.00,VWS V14.00,2013-01-09 12:53:00,
2013-01-09 06:58:00,42.2,40.9,30.35,SW,217,0.0,1.0,95,0.00,,OVC080,0.00,VWS V14.00,2013-01-09 12:58:00,
2013-01-09 07:00:00,41.1,40.0,30.38,SW,217,2.0,2.0,96,0.00,,,0.00,VWS V14.00,2013-01-09 13:00:00,
2013-01-09 07:03:00,42.1,40.8,30.36,SW,217,0.0,3.0,95,0.00,,BKN080,0.00,VWS V14.00,2013-01-09 13:03:00,
2013-01-09 07:08:00,42.0,40.7,30.36,SW,217,0.0,3.0,95,0.00,,BKN080,0.00,VWS V14.00,2013-01-09 13:08:00,
2013-01-09 07:13:00,41.9,40.6,30.36,SW,217,0.0,3.0,95,0.00,,BKN080,0.00,VWS V14.00,2013-01-09 13:13:00,
2013-01-09 07:18:00,41.6,40.3,30.36,SW,217,0.0,3.0,95,0.00,,BKN080,0.00,VWS V14.00,2013-01-09 13:18:00,
2013-01-09 07:23:00,41.2,39.9,30.37,SW,217,0.0,2.0,95,0.00,,,0.00,VWS V14.00,2013-01-09 13:23:00,
2013-01-09 07:28:00,41.0,39.7,30.37,SW,217,0.0,2.0,95,0.00,,,0.00,VWS V14.00,2013-01-09 13:28:00,
2013-01-09 07:30:00,41.4,40.1,30.36,SW,217,0.0,3.0,95,0.00,,-RA,0.00,VWS V14.00,2013-01-09 13:30:00,
2013-01-09 07:33:00,40.9,39.6,30.37,SW,217,2.0,2.0,95,0.00,,,0.00,VWS V14.00,2013-01-09 13:33:00,
2013-01-09 07:38:00,41.0,39.7,30.38,SW,217,0.0,2.0,95,0.00,,,0.00,VWS V14.00,2013-01-09 13:38:00,
2013-01-09 07:43:00,41.0,39.7,30.38,SW,217,2.0,2.0,95,0.00,,,0.00,VWS V14.00,2013-01-09 13:43:00,
2013-01-09 07:48:00,41.1,39.8,30.38,SW,217,2.0,2.0,95,0.00,,,0.00,VWS V14.00,2013-01-09 13:48:00,
2013-01-09 07:53:00,41.2,40.2,30.38,SW,217,0.0,3.0,96,0.00,,,0.00,VWS V14.00,2013-01-09 13:53:00,
2013-01-09 07:57:00,41.1,40.0,30.38,SW,217,1.0,3.0,96,0.00,,,0.00,VWS V14.00,2013-01-09 13:57:00,
2013-01-09 08:00:00,41.1,40.0,30.38,SW,217,2.0,2.0,96,0.00,,-RA,0.00,VWS V14.00,2013-01-09 14:00:00,
2013-01-09 08:03:00,40.5,39.2,30.39,SW,217,0.0,3.0,95,0.00,,,0.00,VWS V14.00,2013-01-09 14:03:00,
2013-01-09 08:08:00,40.5,39.2,30.39,SW,217,2.0,3.0,95,0.00,,,0.00,VWS V14.00,2013-01-09 14:08:00,
2013-01-09 08:12:00,40.9,39.8,30.39,SW,217,0.0,3.0,96,0.00,,,0.00,VWS V14.00,2013-01-09 14:12:00,
2013-01-09 08:17:00,41.0,40.0,30.40,SW,217,0.0,3.0,96,0.00,,,0.00,VWS V14.00,2013-01-09 14:17:00,
2013-01-09 08:22:00,40.6,39.5,30.40,SW,217,0.0,1.0,96,0.00,,,0.00,VWS V14.00,2013-01-09 14:22:00,
2013-01-09 08:27:00,40.4,39.3,30.40,SW,217,0.0,2.0,96,0.00,,,0.00,VWS V14.00,2013-01-09 14:27:00,
2013-01-09 08:30:00,41.0,40.0,30.40,SW,217,0.0,3.0,96,0.00,,-RA,0.00,VWS V14.00,2013-01-09 14:30:00,
2013-01-09 08:32:00,40.5,39.5,30.40,SW,217,0.0,2.0,96,0.00,,,0.00,VWS V14.00,2013-01-09 14:32:00,
2013-01-09 08:37:00,40.9,39.8,30.40,SW,217,0.0,2.0,96,0.00,,,0.00,VWS V14.00,2013-01-09 14:37:00,
2013-01-09 08:42:00,41.8,40.8,30.40,SW,217,0.0,2.0,96,0.00,,,0.00,VWS V14.00,2013-01-09 14:42:00,
2013-01-09 08:47:00,42.8,41.7,30.40,SW,227,1.0,5.0,96,0.00,,,0.00,VWS V14.00,2013-01-09 14:47:00,
2013-01-09 08:52:00,43.3,42.2,30.41,WSW,239,0.0,4.0,96,0.00,,,0.00,VWS V14.00,2013-01-09 14:52:00,
2013-01-09 08:57:00,43.6,42.5,30.41,WSW,239,4.0,4.0,96,0.00,,,0.00,VWS V14.00,2013-01-09 14:57:00,
2013-01-09 09:00:00,43.1,42.0,30.41,SW,227,0.0,5.0,96,0.00,,-RA,0.00,VWS V14.00,2013-01-09 15:00:00,
2013-01-09 09:02:00,44.0,42.9,30.41,WSW,240,3.0,5.0,96,0.00,,,0.00,VWS V14.00,2013-01-09 15:02:00,
2013-01-09 09:07:00,44.4,43.3,30.41,WSW,240,2.0,5.0,96,0.00,,,0.00,VWS V14.00,2013-01-09 15:07:00,
2013-01-09 09:12:00,44.7,43.9,30.41,WSW,240,0.0,5.0,97,0.00,,,0.00,VWS V14.00,2013-01-09 15:12:00,
2013-01-09 09:17:00,45.2,44.1,30.42,WSW,240,2.0,5.0,96,0.00,,,0.00,VWS V14.00,2013-01-09 15:17:00,
2013-01-09 09:22:00,45.5,44.4,30.42,West,261,6.0,7.0,96,0.00,,CLR,0.00,VWS V14.00,2013-01-09 15:22:00,
2013-01-09 09:27:00,45.7,44.1,30.43,West,268,3.0,7.0,94,0.00,,CLR,0.00,VWS V14.00,2013-01-09 15:27:00,
2013-01-09 09:30:00,45.2,44.1,30.42,WSW,244,4.0,5.0,96,0.00,,-RA,0.00,VWS V14.00,2013-01-09 15:30:00,
2013-01-09 09:32:00,45.9,44.0,30.42,West,268,1.0,7.0,93,0.00,,CLR,0.00,VWS V14.00,2013-01-09 15:32:00,
2013-01-09 09:37:00,46.3,44.4,30.42,West,266,3.0,7.0,93,0.00,,CLR,0.00,VWS V14.00,2013-01-09 15:37:00,
2013-01-09 09:42:00,46.5,44.0,30.42,West,265,3.0,7.0,91,0.00,,CLR,0.00,VWS V14.00,2013-01-09 15:42:00,
2013-01-09 09:47:00,47.0,44.5,30.43,West,265,4.0,7.0,91,0.00,,CLR,0.00,VWS V14.00,2013-01-09 15:47:00,
2013-01-09 09:52:00,47.1,44.3,30.43,West,267,3.0,4.0,90,0.00,,CLR,0.00,VWS V14.00,2013-01-09 15:52:00,
2013-01-09 09:57:00,47.4,44.6,30.43,West,261,6.0,6.0,90,0.00,,CLR,0.00,VWS V14.00,2013-01-09 15:57:00,
2013-01-09 10:00:00,47.0,44.2,30.43,West,265,2.0,7.0,90,0.00,,-RA,0.00,VWS V14.00,2013-01-09 16:00:00,
2013-01-09 10:02:00,47.6,44.2,30.43,West,271,2.0,7.0,88,0.00,,CLR,0.00,VWS V14.00,2013-01-09 16:02:00,
2013-01-09 10:07:00,47.8,44.1,30.43,WNW,296,5.0,7.0,87,0.00,,CLR,0.00,VWS V14.00,2013-01-09 16:07:00,
2013-01-09 10:12:00,48.2,44.5,30.43,West,281,4.0,7.0,87,0.00,,CLR,0.00,VWS V14.00,2013-01-09 16:12:00,
2013-01-09 10:17:00,48.0,44.0,30.43,West,277,5.0,8.0,86,0.00,,CLR,0.00,VWS V14.00,2013-01-09 16:17:00,
2013-01-09 10:22:00,47.8,43.5,30.42,West,267,4.0,7.0,85,0.00,,CLR,0.00,VWS V14.00,2013-01-09 16:22:00,
2013-01-09 10:27:00,47.8,43.8,30.42,West,263,6.0,7.0,86,0.00,,CLR,0.00,VWS V14.00,2013-01-09 16:27:00,
2013-01-09 10:30:00,47.8,43.5,30.43,West,268,5.0,8.0,85,0.00,,-RA,0.00,VWS V14.00,2013-01-09 16:30:00,
2013-01-09 10:32:00,47.8,43.8,30.43,WSW,252,4.0,7.0,86,0.00,,CLR,0.00,VWS V14.00,2013-01-09 16:32:00,
2013-01-09 10:37:00,48.1,43.8,30.42,West,271,2.0,7.0,85,0.00,,CLR,0.00,VWS V14.00,2013-01-09 16:37:00,
2013-01-09 10:42:00,48.1,43.8,30.42,West,275,4.0,7.0,85,0.00,,CLR,0.00,VWS V14.00,2013-01-09 16:42:00,
2013-01-09 10:47:00,48.2,43.6,30.43,West,275,4.0,7.0,84,0.00,,CLR,0.00,VWS V14.00,2013-01-09 16:47:00,
2013-01-09 10:52:00,48.2,43.6,30.42,West,275,3.0,5.0,84,0.00,,CLR,0.00,VWS V14.00,2013-01-09 16:52:00,
2013-01-09 10:57:00,48.5,43.9,30.43,West,269,2.0,5.0,84,0.00,,CLR,0.00,VWS V14.00,2013-01-09 16:57:00,
2013-01-09 11:00:00,48.2,43.6,30.43,West,275,4.0,7.0,84,0.00,,-RA,0.00,VWS V14.00,2013-01-09 17:00:00,
2013-01-09 11:02:00,48.9,44.9,30.43,West,269,0.0,5.0,86,0.00,,,0.00,VWS V14.00,2013-01-09 17:02:00,
2013-01-09 11:07:00,49.3,44.0,30.42,West,266,6.0,8.0,82,0.00,,,0.00,VWS V14.00,2013-01-09 17:07:00,
2013-01-09 11:12:00,49.2,44.6,30.43,West,272,6.0,8.0,84,0.00,,,0.00,VWS V14.00,2013-01-09 17:12:00,
2013-01-09 11:17:00,49.9,44.0,30.42,NW,315,1.0,8.0,80,0.00,,,0.00,VWS V14.00,2013-01-09 17:17:00,
2013-01-09 11:22:00,50.5,44.6,30.42,North,360,1.0,6.0,80,0.00,,,0.00,VWS V14.00,2013-01-09 17:22:00,
2013-01-09 11:27:00,50.7,43.1,30.42,NNW,345,5.0,7.0,75,0.00,,,0.00,VWS V14.00,2013-01-09 17:27:00,
2013-01-09 11:30:00,50.2,44.3,30.42,NNW,335,2.0,8.0,80,0.00,,-RA,0.00,VWS V14.00,2013-01-09 17:30:00,
2013-01-09 11:32:00,51.1,42.4,30.41,NW,315,6.0,7.0,72,0.00,,,0.00,VWS V14.00,2013-01-09 17:32:00,
2013-01-09 11:37:00,51.5,42.0,30.41,North,9,4.0,8.0,70,0.00,,,0.00,VWS V14.00,2013-01-09 17:37:00,
2013-01-09 11:42:00,51.8,42.7,30.41,North,5,2.0,8.0,71,0.00,,CLR,0.00,VWS V14.00,2013-01-09 17:42:00,
2013-01-09 11:47:00,52.1,43.0,30.41,North,350,5.0,8.0,71,0.00,,CLR,0.00,VWS V14.00,2013-01-09 17:47:00,
2013-01-09 11:52:00,52.2,43.1,30.40,NW,309,3.0,6.0,71,0.00,,CLR,0.00,VWS V14.00,2013-01-09 17:52:00,
2013-01-09 11:57:00,52.3,43.5,30.41,NNE,23,4.0,8.0,72,0.00,,CLR,0.00,VWS V14.00,2013-01-09 17:57:00,
2013-01-09 12:00:00,52.2,42.3,30.41,WNW,284,1.0,8.0,69,0.00,,-RA,0.00,VWS V14.00,2013-01-09 18:00:00,
2013-01-09 12:02:00,52.5,43.0,30.40,NW,313,5.0,8.0,70,0.00,,CLR,0.00,VWS V14.00,2013-01-09 18:02:00,
2013-01-09 12:07:00,52.6,43.1,30.40,NNE,17,8.0,9.0,70,0.00,,CLR,0.00,VWS V14.00,2013-01-09 18:07:00,
2013-01-09 12:12:00,52.6,43.1,30.41,NNE,13,2.0,9.0,70,0.00,,CLR,0.00,VWS V14.00,2013-01-09 18:12:00,
2013-01-09 12:17:00,52.6,42.3,30.41,NNE,18,4.0,9.0,68,0.00,,CLR,0.00,VWS V14.00,2013-01-09 18:17:00,
2013-01-09 12:22:00,52.5,42.3,30.40,NE,44,4.0,7.0,68,0.00,,,0.00,VWS V14.00,2013-01-09 18:22:00,
2013-01-09 12:27:00,52.7,42.5,30.40,NE,40,3.0,7.0,68,0.00,,,0.00,VWS V14.00,2013-01-09 18:27:00,
2013-01-09 12:30:00,52.6,42.0,30.41,NNE,23,4.0,9.0,67,0.00,,-RA,0.00,VWS V14.00,2013-01-09 18:30:00,
2013-01-09 12:32:00,52.8,41.4,30.40,NNE,32,6.0,10.0,65,0.00,,,0.00,VWS V14.00,2013-01-09 18:32:00,
2013-01-09 12:37:00,52.8,41.0,30.40,North,355,3.0,10.0,64,0.00,,,0.00,VWS V14.00,2013-01-09 18:37:00,
2013-01-09 12:41:00,52.9,41.5,30.40,North,5,4.0,10.0,65,0.00,,CLR,0.00,VWS V14.00,2013-01-09 18:41:00,
2013-01-09 12:44:00,52.8,41.4,30.40,North,5,1.0,10.0,65,0.00,,CLR,0.00,VWS V14.00,2013-01-09 18:44:00,
2013-01-09 12:45:00,52.8,41.8,30.40,North,5,3.0,10.0,66,0.00,,CLR,0.00,VWS V14.00,2013-01-09 18:45:00,
2013-01-09 12:48:00,52.9,42.3,30.41,NW,325,7.0,10.0,67,0.00,,CLR,0.00,VWS V14.00,2013-01-09 18:48:00,
2013-01-09 12:53:00,52.9,41.9,30.40,NNW,335,0.0,5.0,66,0.00,,CLR,0.00,VWS V14.00,2013-01-09 18:53:00,
2013-01-09 12:58:00,53.2,42.5,30.41,NE,38,4.0,5.0,67,0.00,,CLR,0.00,VWS V14.00,2013-01-09 18:58:00,
2013-01-09 13:00:00,52.9,41.5,30.41,NNW,344,5.0,10.0,65,0.00,,-RA,0.00,VWS V14.00,2013-01-09 19:00:00,
2013-01-09 13:03:00,53.5,42.0,30.41,West,276,0.0,6.0,65,0.00,,CLR,0.00,VWS V14.00,2013-01-09 19:03:00,
2013-01-09 13:08:00,53.5,42.4,30.41,NNW,331,3.0,6.0,66,0.00,,CLR,0.00,VWS V14.00,2013-01-09 19:08:00,
2013-01-09 13:13:00,53.0,41.2,30.41,West,267,5.0,7.0,64,0.00,,CLR,0.00,VWS V14.00,2013-01-09 19:13:00,
2013-01-09 13:18:00,53.1,41.7,30.40,NW,325,0.0,9.0,65,0.00,,CLR,0.00,VWS V14.00,2013-01-09 19:18:00,
2013-01-09 13:23:00,53.5,41.6,30.41,NNE,19,0.0,5.0,64,0.00,,CLR,0.00,VWS V14.00,2013-01-09 19:23:00,
2013-01-09 13:28:00,53.6,41.3,30.40,WNW,297,2.0,5.0,63,0.00,,CLR,0.00,VWS V14.00,2013-01-09 19:28:00,
2013-01-09 13:30:00,53.2,41.8,30.40,NNW,329,0.0,9.0,65,0.00,,-RA,0.00,VWS V14.00,2013-01-09 19:30:00,
2013-01-09 13:33:00,53.7,41.4,30.41,NE,43,2.0,5.0,63,0.00,,CLR,0.00,VWS V14.00,2013-01-09 19:33:00,
2013-01-09 13:38:00,53.8,41.5,30.41,NE,39,0.0,5.0,63,0.00,,CLR,0.00,VWS V14.00,2013-01-09 19:38:00,
2013-01-09 13:43:00,53.8,41.5,30.41,NNW,337,3.0,5.0,63,0.00,,,0.00,VWS V14.00,2013-01-09 19:43:00,
2013-01-09 13:48:00,53.8,40.7,30.41,NNW,336,0.0,5.0,61,0.00,,,0.00,VWS V14.00,2013-01-09 19:48:00,
2013-01-09 13:53:00,53.8,40.3,30.41,NNW,336,0.0,4.0,60,0.00,,,0.00,VWS V14.00,2013-01-09 19:53:00,
2013-01-09 13:58:00,54.0,40.9,30.41,North,5,0.0,4.0,61,0.00,,,0.00,VWS V14.00,2013-01-09 19:58:00,
2013-01-09 14:00:00,53.9,40.8,30.41,NNW,336,0.0,5.0,61,0.00,,-RA,0.00,VWS V14.00,2013-01-09 20:00:00,
2013-01-09 14:03:00,54.2,40.6,30.41,North,5,1.0,4.0,60,0.00,,,0.00,VWS V14.00,2013-01-09 20:03:00,
2013-01-09 14:08:00,54.5,39.6,30.41,North,5,2.0,4.0,57,0.00,,,0.00,VWS V14.00,2013-01-09 20:08:00,
2013-01-09 14:13:00,54.6,40.1,30.41,NNE,12,1.0,4.0,58,0.00,,,0.00,VWS V14.00,2013-01-09 20:13:00,
2013-01-09 14:18:00,54.9,40.9,30.41,NNE,13,1.0,4.0,59,0.00,,,0.00,VWS V14.00,2013-01-09 20:18:00,
2013-01-09 14:23:00,55.0,40.1,30.41,NNE,14,2.0,3.0,57,0.00,,,0.00,VWS V14.00,2013-01-09 20:23:00,
2013-01-09 14:28:00,54.9,39.5,30.41,NNE,26,1.0,4.0,56,0.00,,,0.00,VWS V14.00,2013-01-09 20:28:00,
2013-01-09 14:30:00,54.9,40.0,30.41,NNE,13,1.0,4.0,57,0.00,,-RA,0.00,VWS V14.00,2013-01-09 20:30:00,
2013-01-09 14:33:00,54.8,39.9,30.41,NNE,26,3.0,4.0,57,0.00,,,0.00,VWS V14.00,2013-01-09 20:33:00,
2013-01-09 14:38:00,54.7,40.2,30.41,NNE,13,2.0,4.0,58,0.00,,,0.00,VWS V14.00,2013-01-09 20:38:00,
2013-01-09 14:43:00,54.6,40.1,30.42,NNE,15,0.0,5.0,58,0.00,,CLR,0.00,VWS V14.00,2013-01-09 20:43:00,
2013-01-09 14:48:00,54.6,40.6,30.42,NNE,13,2.0,5.0,59,0.00,,CLR,0.00,VWS V14.00,2013-01-09 20:48:00,
2013-01-09 14:53:00,54.4,39.0,30.42,NNE,13,0.0,3.0,56,0.00,,CLR,0.00,VWS V14.00,2013-01-09 20:53:00,
2013-01-09 14:58:00,54.2,39.8,30.42,NNE,13,0.0,3.0,58,0.00,,CLR,0.00,VWS V14.00,2013-01-09 20:58:00,
2013-01-09 15:00:00,54.5,40.0,30.42,NNE,13,0.0,5.0,58,0.00,,-RA,0.00,VWS V14.00,2013-01-09 21:00:00,
2013-01-09 15:03:00,54.1,41.0,30.42,NNE,13,0.0,3.0,61,0.00,,CLR,0.00,VWS V14.00,2013-01-09 21:03:00,
2013-01-09 15:08:00,54.0,40.0,30.42,NNE,13,0.0,3.0,59,0.00,,CLR,0.00,VWS V14.00,2013-01-09 21:08:00,
2013-01-09 15:13:00,53.8,41.1,30.43,NNE,14,0.0,4.0,62,0.00,,CLR,0.00,VWS V14.00,2013-01-09 21:13:00,
2013-01-09 15:18:00,53.5,40.8,30.43,North,5,1.0,5.0,62,0.00,,CLR,0.00,VWS V14.00,2013-01-09 21:18:00,
2013-01-09 15:23:00,53.2,40.1,30.43,North,360,1.0,3.0,61,0.00,,CLR,0.00,VWS V14.00,2013-01-09 21:23:00,
2013-01-09 15:28:00,53.0,40.8,30.43,NNW,346,0.0,4.0,63,0.00,,CLR,0.00,VWS V14.00,2013-01-09 21:28:00,
2013-01-09 15:30:00,53.5,39.5,30.43,North,5,1.0,5.0,59,0.00,,-RA,0.00,VWS V14.00,2013-01-09 21:30:00,
2013-01-09 15:33:00,52.8,41.0,30.43,NNW,346,0.0,4.0,64,0.00,,CLR,0.00,VWS V14.00,2013-01-09 21:33:00,
2013-01-09 15:38:00,52.5,40.7,30.43,NNW,346,0.0,4.0,64,0.00,,CLR,0.00,VWS V14.00,2013-01-09 21:38:00,
2013-01-09 15:43:00,52.3,40.9,30.43,NNW,346,0.0,4.0,65,0.00,,CLR,0.00,VWS V14.00,2013-01-09 21:43:00,
2013-01-09 15:48:00,52.0,40.6,30.43,NNW,346,0.0,4.0,65,0.00,,CLR,0.00,VWS V14.00,2013-01-09 21:48:00,
2013-01-09 15:53:00,51.9,40.9,30.44,NNW,346,0.0,1.0,66,0.00,,CLR,0.00,VWS V14.00,2013-01-09 21:53:00,
2013-01-09 15:58:00,51.7,40.3,30.44,NNW,346,0.0,2.0,65,0.00,,CLR,0.00,VWS V14.00,2013-01-09 21:58:00,
2013-01-09 16:00:00,52.0,40.2,30.43,NNW,346,1.0,4.0,64,0.00,,-RA,0.00,VWS V14.00,2013-01-09 22:00:00,
2013-01-09 16:03:00,51.5,40.1,30.44,NNW,346,0.0,2.0,65,0.00,,CLR,0.00,VWS V14.00,2013-01-09 22:03:00,
2013-01-09 16:08:00,51.4,40.0,30.44,NNW,346,0.0,2.0,65,0.00,,CLR,0.00,VWS V14.00,2013-01-09 22:08:00,
2013-01-09 16:13:00,51.2,40.6,30.44,NNW,346,0.0,2.0,67,0.00,,CLR,0.00,VWS V14.00,2013-01-09 22:13:00,
2013-01-09 16:18:00,50.9,40.3,30.45,NNW,346,0.0,2.0,67,0.00,,CLR,0.00,VWS V14.00,2013-01-09 22:18:00,
2013-01-09 16:23:00,50.6,40.1,30.45,NNW,346,0.0,0.0,67,0.00,,CLR,0.00,VWS V14.00,2013-01-09 22:23:00,
2013-01-09 16:28:00,50.3,40.2,30.45,NNW,346,0.0,0.0,68,0.00,,CLR,0.00,VWS V14.00,2013-01-09 22:28:00,
2013-01-09 16:30:00,50.8,40.2,30.45,NNW,346,0.0,2.0,67,0.00,,-RA,0.00,VWS V14.00,2013-01-09 22:30:00,
2013-01-09 16:33:00,49.9,39.8,30.45,NNW,346,0.0,0.0,68,0.00,,CLR,0.00,VWS V14.00,2013-01-09 22:33:00,
2013-01-09 16:38:00,49.5,39.0,30.45,NNW,346,0.0,0.0,67,0.00,,CLR,0.00,VWS V14.00,2013-01-09 22:38:00,
2013-01-09 16:43:00,49.2,39.5,30.45,NNW,346,0.0,0.0,69,0.00,,CLR,0.00,VWS V14.00,2013-01-09 22:43:00,
2013-01-09 16:48:00,48.9,38.8,30.45,NNW,346,0.0,0.0,68,0.00,,CLR,0.00,VWS V14.00,2013-01-09 22:48:00,
2013-01-09 16:53:00,48.6,38.9,30.45,NNW,346,0.0,0.0,69,0.00,,CLR,0.00,VWS V14.00,2013-01-09 22:53:00,
2013-01-09 16:58:00,48.0,39.4,30.44,NNW,346,0.0,0.0,72,0.00,,CLR,0.00,VWS V14.00,2013-01-09 22:58:00,
2013-01-09 17:00:00,48.8,38.7,30.45,NNW,346,0.0,0.0,68,0.00,,-RA,0.00,VWS V14.00,2013-01-09 23:00:00,
2013-01-09 17:03:00,47.3,39.1,30.44,NNW,346,0.0,2.0,73,0.00,,CLR,0.00,VWS V14.00,2013-01-09 23:03:00,
2013-01-09 17:08:00,46.8,39.0,30.45,NNW,346,0.0,2.0,74,0.00,,CLR,0.00,VWS V14.00,2013-01-09 23:08:00,
2013-01-09 17:13:00,45.6,38.2,30.45,NNW,346,0.0,2.0,75,0.00,,CLR,0.00,VWS V14.00,2013-01-09 23:13:00,
2013-01-09 17:18:00,44.7,38.3,30.45,NNW,346,0.0,2.0,78,0.00,,CLR,0.00,VWS V14.00,2013-01-09 23:18:00,
2013-01-09 17:23:00,43.9,37.8,30.45,NNW,346,0.0,0.0,79,0.00,,CLR,0.00,VWS V14.00,2013-01-09 23:23:00,
2013-01-09 17:28:00,43.7,38.0,30.45,NNW,346,0.0,0.0,80,0.00,,CLR,0.00,VWS V14.00,2013-01-09 23:28:00,
2013-01-09 17:30:00,44.4,38.3,30.45,NNW,346,0.0,2.0,79,0.00,,-RA,0.00,VWS V14.00,2013-01-09 23:30:00,
2013-01-09 17:33:00,43.6,38.2,30.45,NNW,346,0.0,0.0,81,0.00,,CLR,0.00,VWS V14.00,2013-01-09 23:33:00,
2013-01-09 17:38:00,43.4,38.0,30.45,NNW,346,0.0,0.0,81,0.00,,CLR,0.00,VWS V14.00,2013-01-09 23:38:00,
2013-01-09 17:43:00,43.3,37.9,30.45,NNW,346,0.0,0.0,81,0.00,,CLR,0.00,VWS V14.00,2013-01-09 23:43:00,
2013-01-09 17:48:00,43.1,37.7,30.46,NNW,346,0.0,0.0,81,0.00,,CLR,0.00,VWS V14.00,2013-01-09 23:48:00,
2013-01-09 17:53:00,42.9,37.5,30.46,NNW,346,0.0,0.0,81,0.00,,CLR,0.00,VWS V14.00,2013-01-09 23:53:00,
2013-01-09 17:58:00,42.6,37.5,30.47,NNW,346,0.0,0.0,82,0.00,,CLR,0.00,VWS V14.00,2013-01-09 23:58:00,
2013-01-09 18:00:00,43.1,37.7,30.46,NNW,346,0.0,0.0,81,0.00,,-RA,0.00,VWS V14.00,2013-01-10 00:00:00,
2013-01-09 18:03:00,42.2,37.4,30.47,NNW,346,2.0,3.0,83,0.00,,CLR,0.00,VWS V14.00,2013-01-10 00:03:00,
2013-01-09 18:08:00,41.8,37.0,30.48,NNW,346,0.0,3.0,83,0.00,,CLR,0.00,VWS V14.00,2013-01-10 00:08:00,
2013-01-09 18:13:00,41.6,37.1,30.48,NNW,346,1.0,3.0,84,0.00,,CLR,0.00,VWS V14.00,2013-01-10 00:13:00,
2013-01-09 18:18:00,41.5,37.0,30.48,NNW,348,1.0,4.0,84,0.00,,CLR,0.00,VWS V14.00,2013-01-10 00:18:00,
2013-01-09 18:23:00,41.1,36.9,30.48,North,349,0.0,2.0,85,0.00,,CLR,0.00,VWS V14.00,2013-01-10 00:23:00,
2013-01-09 18:28:00,40.9,36.8,30.49,North,350,0.0,4.0,85,0.00,,CLR,0.00,VWS V14.00,2013-01-10 00:28:00,
2013-01-09 18:30:00,41.4,36.9,30.48,North,349,1.0,4.0,84,0.00,,-RA,0.00,VWS V14.00,2013-01-10 00:30:00,
2013-01-09 18:33:00,40.2,35.8,30.49,North,350,0.0,4.0,84,0.00,,CLR,0.00,VWS V14.00,2013-01-10 00:33:00,
2013-01-09 18:38:00,39.6,35.5,30.49,North,350,0.0,4.0,85,0.00,,CLR,0.00,VWS V14.00,2013-01-10 00:38:00,
2013-01-09 18:43:00,39.3,35.8,30.49,North,350,0.0,4.0,87,0.00,,CLR,0.00,VWS V14.00,2013-01-10 00:43:00,
2013-01-09 18:48:00,39.2,36.0,30.49,North,350,1.0,4.0,88,0.00,,CLR,0.00,VWS V14.00,2013-01-10 00:48:00,
2013-01-09 18:53:00,39.2,36.0,30.49,North,351,3.0,4.0,88,0.00,,CLR,0.00,VWS V14.00,2013-01-10 00:53:00,
2013-01-09 18:58:00,39.2,35.4,30.49,North,351,0.0,4.0,86,0.00,,CLR,0.00,VWS V14.00,2013-01-10 00:58:00,
2013-01-09 19:00:00,39.2,36.0,30.49,North,350,3.0,4.0,88,0.00,,-RA,0.00,VWS V14.00,2013-01-10 01:00:00,
2013-01-09 19:03:00,38.9,34.8,30.50,North,351,0.0,4.0,85,0.00,,CLR,0.00,VWS V14.00,2013-01-10 01:03:00,
2013-01-09 19:08:00,38.7,34.9,30.50,North,351,1.0,4.0,86,0.00,,CLR,0.00,VWS V14.00,2013-01-10 01:08:00,
2013-01-09 19:13:00,38.9,34.8,30.50,North,351,3.0,4.0,85,0.00,,CLR,0.00,VWS V14.00,2013-01-10 01:13:00,
2013-01-09 19:18:00,39.3,34.9,30.50,NNE,16,4.0,4.0,84,0.00,,CLR,0.00,VWS V14.00,2013-01-10 01:18:00,
2013-01-09 19:23:00,39.6,34.6,30.50,NNE,28,2.0,4.0,82,0.00,,CLR,0.00,VWS V14.00,2013-01-10 01:23:00,
2013-01-09 19:28:00,40.2,34.8,30.50,NE,36,4.0,5.0,81,0.00,,CLR,0.00,VWS V14.00,2013-01-10 01:28:00,
2013-01-09 19:30:00,39.4,35.0,30.50,NNE,17,3.0,4.0,84,0.00,,-RA,0.00,VWS V14.00,2013-01-10 01:30:00,
2013-01-09 19:33:00,40.5,34.8,30.50,NE,41,4.0,6.0,80,0.00,,CLR,0.00,VWS V14.00,2013-01-10 01:33:00,
2013-01-09 19:38:00,40.5,34.5,30.50,NE,38,3.0,6.0,79,0.00,,CLR,0.00,VWS V14.00,2013-01-10 01:38:00,
2013-01-09 19:43:00,40.7,34.4,30.50,NE,38,2.0,6.0,78,0.00,,CLR,0.00,VWS V14.00,2013-01-10 01:43:00,
2013-01-09 19:48:00,40.8,34.5,30.50,NE,38,2.0,6.0,78,0.00,,CLR,0.00,VWS V14.00,2013-01-10 01:48:00,
2013-01-09 19:53:00,40.9,34.6,30.50,NE,40,3.0,5.0,78,0.00,,CLR,0.00,VWS V14.00,2013-01-10 01:53:00,
2013-01-09 19:58:00,40.9,34.6,30.50,NE,37,2.0,5.0,78,0.00,,CLR,0.00,VWS V14.00,2013-01-10 01:58:00,
2013-01-09 20:00:00,40.8,34.5,30.50,NE,38,5.0,6.0,78,0.00,,-RA,0.00,VWS V14.00,2013-01-10 02:00:00,
2013-01-09 20:03:00,40.8,34.5,30.50,NE,39,4.0,5.0,78,0.00,,CLR,0.00,VWS V14.00,2013-01-10 02:03:00,
2013-01-09 20:08:00,40.8,34.5,30.50,NE,41,3.0,5.0,78,0.00,,CLR,0.00,VWS V14.00,2013-01-10 02:08:00,
2013-01-09 20:13:00,41.0,34.3,30.50,NE,40,3.0,5.0,77,0.00,,CLR,0.00,VWS V14.00,2013-01-10 02:13:00,
2013-01-09 20:18:00,41.0,34.3,30.50,NE,56,6.0,7.0,77,0.00,,CLR,0.00,VWS V14.00,2013-01-10 02:18:00,
2013-01-09 20:23:00,41.1,34.5,30.50,NE,35,6.0,7.0,77,0.00,,CLR,0.00,VWS V14.00,2013-01-10 02:23:00,
2013-01-09 20:28:00,41.1,34.8,30.49,NE,36,5.0,7.0,78,0.00,,CLR,0.00,VWS V14.00,2013-01-10 02:28:00,
2013-01-09 20:30:00,41.1,34.5,30.50,NE,46,4.0,7.0,77,0.00,,-RA,0.00,VWS V14.00,2013-01-10 02:30:00,
2013-01-09 20:33:00,41.1,34.5,30.49,NE,41,4.0,7.0,77,0.00,,CLR,0.00,VWS V14.00,2013-01-10 02:33:00,
2013-01-09 20:38:00,41.2,34.5,30.49,NE,38,4.0,7.0,77,0.00,,CLR,0.00,VWS V14.00,2013-01-10 02:38:00,
2013-01-09 20:43:00,41.1,34.5,30.49,NE,35,4.0,7.0,77,0.00,,CLR,0.00,VWS V14.00,2013-01-10 02:43:00,
2013-01-09 20:48:00,40.9,34.6,30.49,NE,35,5.0,7.0,78,0.00,,CLR,0.00,VWS V14.00,2013-01-10 02:48:00,
2013-01-09 20:53:00,40.5,34.5,30.49,NE,38,4.0,6.0,79,0.00,,CLR,0.00,VWS V14.00,2013-01-10 02:53:00,
2013-01-09 20:58:00,40.5,34.5,30.50,NE,44,3.0,6.0,79,0.00,,CLR,0.00,VWS V14.00,2013-01-10 02:58:00,
2013-01-09 21:00:00,40.7,34.4,30.49,NE,38,6.0,7.0,78,0.00,,-RA,0.00,VWS V14.00,2013-01-10 03:00:00,
2013-01-09 21:03:00,40.7,34.4,30.50,NE,45,2.0,6.0,78,0.00,,CLR,0.00,VWS V14.00,2013-01-10 03:03:00,
2013-01-09 21:08:00,40.7,34.4,30.50,NE,43,0.0,6.0,78,0.00,,CLR,0.00,VWS V14.00,2013-01-10 03:08:00,
2013-01-09 21:13:00,40.5,34.2,30.50,NE,43,0.0,6.0,78,0.00,,CLR,0.00,VWS V14.00,2013-01-10 03:13:00,
2013-01-09 21:18:00,40.2,33.9,30.50,NE,43,0.0,6.0,78,0.00,,CLR,0.00,VWS V14.00,2013-01-10 03:18:00,
2013-01-09 21:23:00,40.0,34.0,30.51,NE,43,0.0,1.0,79,0.00,,CLR,0.00,VWS V14.00,2013-01-10 03:23:00,
2013-01-09 21:28:00,39.8,33.8,30.51,NE,43,0.0,2.0,79,0.00,,CLR,0.00,VWS V14.00,2013-01-10 03:28:00,
2013-01-09 21:30:00,40.1,33.8,30.51,NE,43,0.0,6.0,78,0.00,,-RA,0.00,VWS V14.00,2013-01-10 03:30:00,
2013-01-09 21:33:00,39.7,34.0,30.51,NE,43,0.0,3.0,80,0.00,,CLR,0.00,VWS V14.00,2013-01-10 03:33:00,
2013-01-09 21:38:00,39.6,34.0,30.51,NE,43,0.0,3.0,80,0.00,,CLR,0.00,VWS V14.00,2013-01-10 03:38:00,
2013-01-09 21:43:00,39.4,34.1,30.51,NE,43,0.0,3.0,81,0.00,,CLR,0.00,VWS V14.00,2013-01-10 03:43:00,
2013-01-09 21:48:00,39.3,34.0,30.51,NE,43,0.0,3.0,81,0.00,,CLR,0.00,VWS V14.00,2013-01-10 03:48:00,
2013-01-09 21:53:00,39.3,34.0,30.51,NE,43,0.0,0.0,81,0.00,,CLR,0.00,VWS V14.00,2013-01-10 03:53:00,
2013-01-09 21:58:00,39.2,33.9,30.51,NE,43,0.0,1.0,81,0.00,,CLR,0.00,VWS V14.00,2013-01-10 03:58:00,
2013-01-09 22:00:00,39.3,34.0,30.51,NE,43,0.0,3.0,81,0.00,,-RA,0.00,VWS V14.00,2013-01-10 04:00:00,
2013-01-09 22:03:00,39.2,33.9,30.51,NE,43,0.0,1.0,81,0.00,,CLR,0.00,VWS V14.00,2013-01-10 04:03:00,
2013-01-09 22:08:00,39.4,34.1,30.51,NE,43,1.0,1.0,81,0.00,,CLR,0.00,VWS V14.00,2013-01-10 04:08:00,
2013-01-09 22:13:00,39.5,33.8,30.51,NE,43,0.0,2.0,80,0.00,,CLR,0.00,VWS V14.00,2013-01-10 04:13:00,
2013-01-09 22:18:00,39.3,34.0,30.51,NE,43,1.0,2.0,81,0.00,,CLR,0.00,VWS V14.00,2013-01-10 04:18:00,
2013-01-09 22:23:00,39.1,33.8,30.51,NE,43,0.0,1.0,81,0.00,,CLR,0.00,VWS V14.00,2013-01-10 04:23:00,
2013-01-09 22:28:00,38.6,33.6,30.51,NE,43,0.0,1.0,82,0.00,,CLR,0.00,VWS V14.00,2013-01-10 04:28:00,
2013-01-09 22:30:00,39.3,34.0,30.51,NE,43,0.0,2.0,81,0.00,,-RA,0.00,VWS V14.00,2013-01-10 04:30:00,
2013-01-09 22:33:00,38.1,33.4,30.51,NE,43,1.0,2.0,83,0.00,,CLR,0.00,VWS V14.00,2013-01-10 04:33:00,
2013-01-09 22:37:00,37.7,33.0,30.51,NE,43,1.0,3.0,83,0.00,,CLR,0.00,VWS V14.00,2013-01-10 04:37:00,
2013-01-09 22:42:00,37.5,33.1,30.51,NE,43,0.0,3.0,84,0.00,,CLR,0.00,VWS V14.00,2013-01-10 04:42:00,
2013-01-09 22:47:00,37.3,33.2,30.50,NE,43,2.0,3.0,85,0.00,,CLR,0.00,VWS V14.00,2013-01-10 04:47:00,
2013-01-09 22:52:00,37.3,33.2,30.50,NE,42,2.0,4.0,85,0.00,,CLR,0.00,VWS V14.00,2013-01-10 04:52:00,
2013-01-09 22:57:00,37.2,33.1,30.50,NE,42,2.0,4.0,85,0.00,,CLR,0.00,VWS V14.00,2013-01-10 04:57:00,
2013-01-09 23:00:00,37.1,33.0,30.50,NE,42,2.0,4.0,85,0.00,,CLR,0.00,VWS V14.00,2013-01-10 05:00:00,
2013-01-09 23:01:00,37.1,33.0,30.50,NE,42,1.0,4.0,85,0.00,,CLR,0.00,VWS V14.00,2013-01-10 05:01:00,
2013-01-09 23:06:00,37.3,33.5,30.50,NE,44,1.0,4.0,86,0.00,,CLR,0.00,VWS V14.00,2013-01-10 05:06:00,
2013-01-09 23:11:00,37.7,33.6,30.50,NE,49,1.0,4.0,85,0.00,,CLR,0.00,VWS V14.00,2013-01-10 05:11:00,
2013-01-09 23:16:00,37.7,33.6,30.50,NE,49,2.0,4.0,85,0.00,,CLR,0.00,VWS V14.00,2013-01-10 05:16:00,
2013-01-09 23:21:00,37.6,33.5,30.50,NE,49,1.0,3.0,85,0.00,,CLR,0.00,VWS V14.00,2013-01-10 05:21:00,
2013-01-09 23:26:00,38.0,33.9,30.50,NE,49,1.0,3.0,85,0.00,,CLR,0.00,VWS V14.00,2013-01-10 05:26:00,
2013-01-09 23:30:00,38.6,34.2,30.50,NE,51,1.0,4.0,84,0.00,,CLR,0.00,VWS V14.00,2013-01-10 05:30:00,
2013-01-09 23:35:00,39.0,34.3,30.50,NE,51,3.0,4.0,83,0.00,,CLR,0.00,VWS V14.00,2013-01-10 05:35:00,
2013-01-09 23:40:00,39.1,34.4,30.49,NE,53,1.0,5.0,83,0.00,,CLR,0.00,VWS V14.00,2013-01-10 05:40:00,
2013-01-09 23:45:00,39.2,34.5,30.50,NE,54,2.0,5.0,83,0.00,,CLR,0.00,VWS V14.00,2013-01-10 05:45:00,
2013-01-09 23:51:00,39.5,34.8,30.49,NE,54,2.0,2.0,83,0.00,,CLR,0.00,VWS V14.00,2013-01-10 05:51:00,
2013-01-09 23:56:00,39.8,34.8,30.50,NE,43,5.0,5.0,82,0.00,,CLR,0.00,VWS V14.00,2013-01-10 05:56:00,